Time;durP1;ratioP1;P1;durP2;ratioP2;P2;SDS_P1;SDS_P2;PMS_P1;PMS_P2;Temp;Humidity;BMP_temperature;BMP_pressure;BME280_temperature;BME280_humidity;BME280_pressure;Samples;Min_cycle;Max_cycle;Signal;HPM_P1;HPM_P2
2021/09/23 00:02:15;;;;;;;;;;;20.00;47.50;;;;;;8369886;28;19913;-48
2021/09/23 00:06:15;;;;;;;;;;;20.00;47.60;;;;;;8373701;28;19931;-51
2021/09/23 00:10:20;;;;;;;;;;;20.00;47.50;;;;;;8368246;28;20007;-50
2021/09/23 00:14:20;;;;;;;;;;;20.00;47.50;;;;;;8368598;28;20012;-50
2021/09/23 00:18:21;;;;;;;;;;;20.00;47.50;;;;;;8368536;28;19913;-48
2021/09/23 00:22:21;;;;;;;;;;;20.00;47.60;;;;;;8368696;28;19912;-49
2021/09/23 00:26:22;;;;;;;;;;;20.00;47.60;;;;;;8368068;28;19925;-49
2021/09/23 00:30:23;;;;;;;;;;;20.00;47.50;;;;;;8368097;28;19996;-48
2021/09/23 00:34:23;;;;;;;;;;;20.00;47.60;;;;;;8367550;28;19966;-48
2021/09/23 00:38:23;;;;;;;;;;;20.00;47.60;;;;;;8368935;28;20259;-50
2021/09/23 00:42:24;;;;;;;;;;;20.00;47.50;;;;;;8367685;28;20293;-49
2021/09/23 00:46:25;;;;;;;;;;;20.00;47.50;;;;;;8367207;28;20266;-48
2021/09/23 00:50:25;;;;;;;;;;;20.00;47.60;;;;;;8366491;28;19921;-48
2021/09/23 00:54:26;;;;;;;;;;;20.00;47.50;;;;;;8368283;28;20290;-48
2021/09/23 00:58:26;;;;;;;;;;;20.00;47.50;;;;;;8396093;28;19940;-49
2021/09/23 01:02:27;;;;;;;;;;;19.90;47.50;;;;;;8377889;28;20293;-51
2021/09/23 01:06:27;;;;;;;;;;;19.90;47.50;;;;;;8371303;28;19948;-50
2021/09/23 01:10:27;;;;;;;;;;;19.90;47.60;;;;;;8399847;28;19928;-51
2021/09/23 01:14:28;;;;;;;;;;;19.90;47.50;;;;;;8400691;28;19962;-51
2021/09/23 01:18:28;;;;;;;;;;;19.90;47.50;;;;;;8400039;28;19916;-52
2021/09/23 01:22:29;;;;;;;;;;;19.90;47.50;;;;;;8399242;28;19923;-48
2021/09/23 01:26:30;;;;;;;;;;;19.90;47.50;;;;;;8399369;28;19920;-49
2021/09/23 01:30:49;;;;;;;;;;;19.80;47.40;;;;;;8398879;28;20285;-49
2021/09/23 01:34:49;;;;;;;;;;;19.90;47.50;;;;;;8395754;28;20400;-50
2021/09/23 01:38:51;;;;;;;;;;;19.90;47.50;;;;;;8376855;28;19917;-49
2021/09/23 01:42:51;;;;;;;;;;;19.80;47.50;;;;;;8365684;28;19913;-50
2021/09/23 01:46:52;;;;;;;;;;;19.80;47.50;;;;;;8365125;28;19986;-48
2021/09/23 01:50:52;;;;;;;;;;;19.80;47.40;;;;;;8366684;28;20427;-49
2021/09/23 01:54:53;;;;;;;;;;;19.80;47.50;;;;;;8365558;28;20370;-49
2021/09/23 01:58:53;;;;;;;;;;;19.80;47.40;;;;;;8365007;28;19924;-48
2021/09/23 02:02:55;;;;;;;;;;;19.80;47.50;;;;;;8365419;28;19949;-52
2021/09/23 02:06:56;;;;;;;;;;;19.80;47.50;;;;;;8365817;28;19925;-48
2021/09/23 02:10:56;;;;;;;;;;;19.80;47.40;;;;;;8364419;28;20424;-48
2021/09/23 02:14:58;;;;;;;;;;;19.80;47.50;;;;;;8364930;28;19921;-49
2021/09/23 02:18:58;;;;;;;;;;;19.80;47.40;;;;;;8364764;28;19966;-48
2021/09/23 02:22:59;;;;;;;;;;;19.80;47.50;;;;;;8364447;28;19917;-49
2021/09/23 02:26:59;;;;;;;;;;;19.80;47.50;;;;;;8364875;28;19924;-49
2021/09/23 02:31:00;;;;;;;;;;;19.70;47.40;;;;;;8364350;28;19913;-49
2021/09/23 02:35:01;;;;;;;;;;;19.80;47.40;;;;;;8363936;28;19917;-49
2021/09/23 02:39:03;;;;;;;;;;;19.70;47.40;;;;;;8364275;28;19912;-49
2021/09/23 02:43:03;;;;;;;;;;;19.70;47.40;;;;;;8391904;28;19943;-51
2021/09/23 02:47:04;;;;;;;;;;;19.70;47.40;;;;;;8369838;28;19928;-48
2021/09/23 02:51:06;;;;;;;;;;;19.70;47.40;;;;;;8363679;28;20270;-49
2021/09/23 02:55:07;;;;;;;;;;;19.70;47.40;;;;;;8363431;28;20432;-50
2021/09/23 02:59:07;;;;;;;;;;;19.70;47.40;;;;;;8364649;28;19913;-49
2021/09/23 03:03:08;;;;;;;;;;;19.70;47.40;;;;;;8363690;28;19971;-49
2021/09/23 03:07:08;;;;;;;;;;;19.70;47.40;;;;;;8363193;28;19925;-49
2021/09/23 03:11:09;;;;;;;;;;;19.70;47.40;;;;;;8363213;28;19921;-49
2021/09/23 03:15:09;;;;;;;;;;;19.70;47.40;;;;;;8363195;28;19917;-50
2021/09/23 03:19:10;;;;;;;;;;;19.70;47.40;;;;;;8363534;28;19943;-48
2021/09/23 03:23:11;;;;;;;;;;;19.70;47.40;;;;;;8363030;28;20362;-48
2021/09/23 03:27:12;;;;;;;;;;;19.60;47.30;;;;;;8363051;28;19975;-49
2021/09/23 03:31:13;;;;;;;;;;;19.60;47.30;;;;;;8362522;28;20335;-50
2021/09/23 03:35:14;;;;;;;;;;;19.60;47.30;;;;;;8363704;28;19913;-49
2021/09/23 03:39:14;;;;;;;;;;;19.60;47.30;;;;;;8362805;28;19987;-49
2021/09/23 03:43:15;;;;;;;;;;;19.60;47.30;;;;;;8362234;28;19912;-49
2021/09/23 03:47:16;;;;;;;;;;;19.60;47.30;;;;;;8362720;28;20015;-48
2021/09/23 03:51:16;;;;;;;;;;;19.60;47.30;;;;;;8363603;28;19978;-49
2021/09/23 03:55:17;;;;;;;;;;;19.60;47.30;;;;;;8362401;28;19916;-49
2021/09/23 03:59:17;;;;;;;;;;;19.60;47.40;;;;;;8362497;28;19916;-52
2021/09/23 04:03:18;;;;;;;;;;;19.60;47.80;;;;;;8362436;28;19913;-49
2021/09/23 04:07:18;;;;;;;;;;;19.60;47.30;;;;;;8361722;28;19933;-50
2021/09/23 04:11:18;;;;;;;;;;;19.50;47.20;;;;;;8380422;28;19982;-53
2021/09/23 04:15:19;;;;;;;;;;;19.50;47.30;;;;;;8395458;28;20324;-50
2021/09/23 04:19:19;;;;;;;;;;;19.50;47.30;;;;;;8395108;28;19939;-49
2021/09/23 04:23:20;;;;;;;;;;;19.50;47.20;;;;;;8395823;28;19919;-50
2021/09/23 04:27:20;;;;;;;;;;;19.50;47.20;;;;;;8401854;28;20019;-51
2021/09/23 04:31:21;;;;;;;;;;;19.50;47.20;;;;;;8400902;28;19947;-49
2021/09/23 04:35:21;;;;;;;;;;;19.50;47.20;;;;;;8401061;28;19920;-52
2021/09/23 04:39:22;;;;;;;;;;;19.50;47.20;;;;;;8401346;28;20329;-49
2021/09/23 04:43:22;;;;;;;;;;;19.50;47.20;;;;;;8401271;28;20353;-50
2021/09/23 04:47:23;;;;;;;;;;;19.50;47.20;;;;;;8401066;28;20335;-48
2021/09/23 04:51:24;;;;;;;;;;;19.50;47.20;;;;;;8400685;28;19916;-49
2021/09/23 04:55:24;;;;;;;;;;;19.50;47.20;;;;;;8400075;28;19970;-50
2021/09/23 04:59:25;;;;;;;;;;;19.40;47.20;;;;;;8400555;28;19974;-48
2021/09/23 05:03:25;;;;;;;;;;;19.40;47.10;;;;;;8401188;28;19916;-49
2021/09/23 05:07:26;;;;;;;;;;;19.40;47.20;;;;;;8399606;28;20085;-50
2021/09/23 05:11:27;;;;;;;;;;;19.40;47.10;;;;;;8400401;28;20395;-48
2021/09/23 05:15:27;;;;;;;;;;;19.40;47.20;;;;;;8400065;28;19912;-50
2021/09/23 05:19:28;;;;;;;;;;;19.40;47.20;;;;;;8400205;28;19924;-49
2021/09/23 05:23:28;;;;;;;;;;;19.40;47.10;;;;;;8399649;28;19923;-49
2021/09/23 05:27:29;;;;;;;;;;;19.40;47.20;;;;;;8399225;28;19924;-48
2021/09/23 05:31:29;;;;;;;;;;;19.40;47.20;;;;;;8399010;28;19917;-49
2021/09/23 05:35:30;;;;;;;;;;;19.30;47.10;;;;;;8398888;28;19959;-50
2021/09/23 05:39:30;;;;;;;;;;;19.30;47.10;;;;;;8399797;28;19962;-49
2021/09/23 05:43:31;;;;;;;;;;;19.30;47.10;;;;;;8398638;28;19916;-49
2021/09/23 05:47:31;;;;;;;;;;;19.40;47.10;;;;;;8398964;28;19960;-51
2021/09/23 05:51:32;;;;;;;;;;;19.30;47.10;;;;;;8398961;28;19973;-50
2021/09/23 05:55:35;;;;;;;;;;;19.30;47.10;;;;;;8398870;28;19916;-48
2021/09/23 05:59:35;;;;;;;;;;;19.30;47.10;;;;;;8398543;28;19923;-51
2021/09/23 06:03:35;;;;;;;;;;;19.30;47.10;;;;;;8398397;28;19920;-50
2021/09/23 06:07:36;;;;;;;;;;;19.30;47.10;;;;;;8397708;28;19924;-51
2021/09/23 06:11:39;;;;;;;;;;;19.30;47.10;;;;;;8398669;28;19920;-49
2021/09/23 06:15:40;;;;;;;;;;;19.30;47.10;;;;;;8397801;28;19916;-48
2021/09/23 06:19:40;;;;;;;;;;;19.30;47.10;;;;;;8397401;28;19920;-50
2021/09/23 06:23:41;;;;;;;;;;;19.30;47.10;;;;;;8397646;28;20423;-48
2021/09/23 06:27:41;;;;;;;;;;;19.30;47.00;;;;;;8397648;28;20361;-51
2021/09/23 06:31:42;;;;;;;;;;;19.40;46.90;;;;;;8397801;28;19912;-48
2021/09/23 06:35:42;;;;;;;;;;;19.40;46.90;;;;;;8397305;28;19917;-49
2021/09/23 06:39:43;;;;;;;;;;;19.40;46.80;;;;;;8397333;28;19916;-52
2021/09/23 06:43:44;;;;;;;;;;;19.40;46.90;;;;;;8396716;28;20006;-48
2021/09/23 06:47:45;;;;;;;;;;;19.40;46.90;;;;;;8396772;28;19928;-48
2021/09/23 06:51:45;;;;;;;;;;;19.40;46.90;;;;;;8397295;28;20207;-49
2021/09/23 06:55:46;;;;;;;;;;;19.30;46.90;;;;;;8396325;28;20395;-49
2021/09/23 06:59:46;;;;;;;;;;;19.30;47.00;;;;;;8396769;28;19995;-49
2021/09/23 07:03:47;;;;;;;;;;;19.30;47.00;;;;;;8397197;28;19919;-48
2021/09/23 07:07:47;;;;;;;;;;;19.30;47.10;;;;;;8372753;28;19986;-47
2021/09/23 07:11:48;;;;;;;;;;;19.30;47.10;;;;;;8363536;28;19920;-46
2021/09/23 07:15:48;;;;;;;;;;;19.30;47.10;;;;;;8363232;28;19965;-48
2021/09/23 07:19:49;;;;;;;;;;;19.30;47.10;;;;;;8362708;28;19917;-49
2021/09/23 07:23:49;;;;;;;;;;;19.30;47.20;;;;;;8346089;28;19912;-49
2021/09/23 07:27:50;;;;;;;;;;;19.30;47.10;;;;;;8363345;28;20400;-48
2021/09/23 07:31:51;;;;;;;;;;;19.30;47.10;;;;;;8362544;28;19948;-50
2021/09/23 07:35:52;;;;;;;;;;;19.30;47.10;;;;;;8362837;28;19935;-47
2021/09/23 07:39:52;;;;;;;;;;;19.30;47.20;;;;;;8363810;28;19917;-48
2021/09/23 07:43:54;;;;;;;;;;;19.30;47.30;;;;;;8362271;28;19962;-52
2021/09/23 07:47:54;;;;;;;;;;;19.30;47.20;;;;;;8362740;28;19931;-47
2021/09/23 07:51:55;;;;;;;;;;;19.30;47.30;;;;;;8362957;28;20277;-48
2021/09/23 07:55:55;;;;;;;;;;;19.30;47.30;;;;;;8362358;28;19917;-47
2021/09/23 07:59:56;;;;;;;;;;;19.30;47.40;;;;;;8367555;28;19921;-48
2021/09/23 08:03:56;;;;;;;;;;;19.30;47.30;;;;;;8368987;28;19921;-49
2021/09/23 08:07:57;;;;;;;;;;;19.30;47.30;;;;;;8368958;28;19937;-52
2021/09/23 08:11:57;;;;;;;;;;;19.30;47.40;;;;;;8369332;28;19924;-48
2021/09/23 08:15:57;;;;;;;;;;;19.30;47.40;;;;;;8369377;28;19913;-49
2021/09/23 08:19:58;;;;;;;;;;;19.30;47.30;;;;;;8368064;28;20389;-48
2021/09/23 08:23:58;;;;;;;;;;;19.30;47.30;;;;;;8368606;28;19921;-50
2021/09/23 08:27:59;;;;;;;;;;;19.30;47.30;;;;;;8368143;28;20400;-48
2021/09/23 08:31:59;;;;;;;;;;;19.30;47.30;;;;;;8368483;28;19958;-49
2021/09/23 08:36:00;;;;;;;;;;;19.30;47.30;;;;;;8368101;28;20413;-49
2021/09/23 08:40:00;;;;;;;;;;;19.30;47.40;;;;;;8368084;28;20281;-48
2021/09/23 08:44:02;;;;;;;;;;;19.30;47.40;;;;;;8367157;28;20008;-47
2021/09/23 08:48:02;;;;;;;;;;;19.30;47.30;;;;;;8367483;28;19921;-50
2021/09/23 08:52:03;;;;;;;;;;;19.40;47.40;;;;;;8367826;28;19913;-46
2021/09/23 08:56:04;;;;;;;;;;;19.40;47.40;;;;;;8367567;28;19917;-50
2021/09/23 09:00:07;;;;;;;;;;;19.40;47.40;;;;;;8367590;28;19991;-48
2021/09/23 09:04:08;;;;;;;;;;;19.40;47.40;;;;;;8366498;28;19917;-50
2021/09/23 09:08:13;;;;;;;;;;;19.40;47.40;;;;;;8368003;28;19921;-48
2021/09/23 09:12:14;;;;;;;;;;;19.40;47.90;;;;;;8366442;28;19921;-48
2021/09/23 09:16:19;;;;;;;;;;;19.50;47.40;;;;;;8366518;28;19913;-49
2021/09/23 09:20:19;;;;;;;;;;;19.50;47.40;;;;;;8367101;28;19917;-49
2021/09/23 09:24:20;;;;;;;;;;;19.50;47.40;;;;;;8366835;28;20434;-48
2021/09/23 09:28:21;;;;;;;;;;;19.50;47.50;;;;;;8366598;28;19925;-48
2021/09/23 09:32:40;;;;;;;;;;;19.50;47.40;;;;;;8366176;28;19917;-48
2021/09/23 09:36:42;;;;;;;;;;;19.50;47.50;;;;;;8366192;28;19920;-49
2021/09/23 09:40:43;;;;;;;;;;;19.50;47.40;;;;;;8365697;28;19917;-48
2021/09/23 09:44:51;;;;;;;;;;;19.50;47.40;;;;;;8366944;28;20288;-48
2021/09/23 09:48:52;;;;;;;;;;;19.50;47.40;;;;;;8365824;28;19925;-49
2021/09/23 09:52:57;;;;;;;;;;;19.50;47.40;;;;;;8365438;28;20361;-48
2021/09/23 09:57:03;;;;;;;;;;;19.60;47.40;;;;;;8365869;28;20366;-49
2021/09/23 10:01:04;;;;;;;;;;;19.60;47.90;;;;;;8364998;28;19920;-49
2021/09/23 10:05:05;;;;;;;;;;;19.60;47.40;;;;;;8366164;28;20003;-51
2021/09/23 10:09:06;;;;;;;;;;;19.60;47.40;;;;;;8364420;28;19925;-48
2021/09/23 10:13:07;;;;;;;;;;;19.60;47.40;;;;;;8364736;28;19921;-49
2021/09/23 10:17:08;;;;;;;;;;;19.60;47.40;;;;;;8365087;28;19923;-50
2021/09/23 10:21:09;;;;;;;;;;;19.60;47.40;;;;;;8365663;28;19913;-50
2021/09/23 10:25:12;;;;;;;;;;;19.70;47.40;;;;;;8364248;28;20377;-50
2021/09/23 10:29:13;;;;;;;;;;;19.70;47.40;;;;;;8364486;28;19925;-49
2021/09/23 10:33:13;;;;;;;;;;;19.70;47.40;;;;;;8364700;28;20390;-51
2021/09/23 10:37:14;;;;;;;;;;;19.70;47.40;;;;;;8363900;28;19912;-49
2021/09/23 10:41:15;;;;;;;;;;;19.70;47.40;;;;;;8364851;28;19912;-51
2021/09/23 10:45:17;;;;;;;;;;;19.80;47.40;;;;;;8364320;28;19971;-49
2021/09/23 10:49:18;;;;;;;;;;;19.80;47.40;;;;;;8363639;28;19924;-49
2021/09/23 10:53:19;;;;;;;;;;;19.80;47.40;;;;;;8364199;28;20320;-48
2021/09/23 10:57:20;;;;;;;;;;;19.80;47.30;;;;;;8364378;28;19913;-48
2021/09/23 11:01:22;;;;;;;;;;;19.80;47.40;;;;;;8363183;28;20007;-51
2021/09/23 11:05:23;;;;;;;;;;;19.80;47.30;;;;;;8363586;28;19955;-48
2021/09/23 11:09:26;;;;;;;;;;;19.80;47.30;;;;;;8363582;28;19924;-50
2021/09/23 11:13:28;;;;;;;;;;;19.80;47.30;;;;;;8363809;28;20369;-50
2021/09/23 11:17:28;;;;;;;;;;;19.90;47.40;;;;;;8363685;28;20293;-50
2021/09/23 11:21:28;;;;;;;;;;;19.90;47.40;;;;;;8363186;28;19917;-49
2021/09/23 11:25:30;;;;;;;;;;;19.90;47.40;;;;;;8362659;28;19919;-49
2021/09/23 11:29:31;;;;;;;;;;;19.90;47.40;;;;;;8363016;28;19932;-48
2021/09/23 11:33:31;;;;;;;;;;;19.90;47.40;;;;;;8368350;28;19920;-48
2021/09/23 11:37:33;;;;;;;;;;;19.90;47.40;;;;;;8373836;28;20007;-50
2021/09/23 11:41:33;;;;;;;;;;;20.00;47.40;;;;;;8373937;28;20051;-49
2021/09/23 11:45:35;;;;;;;;;;;20.00;47.40;;;;;;8373964;28;20381;-49
2021/09/23 11:49:36;;;;;;;;;;;20.00;47.40;;;;;;8374156;28;19928;-49
2021/09/23 11:53:37;;;;;;;;;;;20.00;47.40;;;;;;8373790;28;19921;-49
2021/09/23 11:57:38;;;;;;;;;;;20.00;47.40;;;;;;8373724;28;19980;-50
2021/09/23 12:01:38;;;;;;;;;;;20.00;47.40;;;;;;8373532;28;19917;-48
2021/09/23 12:05:39;;;;;;;;;;;20.00;47.40;;;;;;8373584;28;19912;-49
2021/09/23 12:09:58;;;;;;;;;;;20.00;47.40;;;;;;8374641;28;20058;-50
2021/09/23 12:14:06;;;;;;;;;;;20.00;47.40;;;;;;8373054;28;20370;-50
2021/09/23 12:18:09;;;;;;;;;;;20.00;47.40;;;;;;8373581;28;19916;-51
2021/09/23 12:22:09;;;;;;;;;;;20.00;47.40;;;;;;8373065;28;19995;-50
2021/09/23 12:26:35;;;;;;;;;;;20.10;47.60;;;;;;8374054;28;19921;-48
2021/09/23 12:30:37;;;;;;;;;;;20.10;47.40;;;;;;8373414;28;21280;-49
2021/09/23 12:34:40;;;;;;;;;;;20.10;47.40;;;;;;8399103;28;19917;-49
2021/09/23 12:38:41;;;;;;;;;;;20.10;47.40;;;;;;8406520;28;19921;-49
2021/09/23 12:42:42;;;;;;;;;;;20.10;47.40;;;;;;8406276;28;19912;-51
2021/09/23 12:46:42;;;;;;;;;;;20.20;47.40;;;;;;8400909;28;20010;-49
2021/09/23 12:50:46;;;;;;;;;;;20.10;47.90;;;;;;8401148;28;20435;-50
2021/09/23 12:54:51;;;;;;;;;;;20.20;47.40;;;;;;8400878;28;20373;-51
2021/09/23 12:59:12;;;;;;;;;;;20.20;47.40;;;;;;8400211;28;19917;-49
2021/09/23 13:03:13;;;;;;;;;;;20.20;47.40;;;;;;8400166;28;19962;-49
2021/09/23 13:07:18;;;;;;;;;;;20.20;47.40;;;;;;8400620;28;19951;-53
2021/09/23 13:11:18;;;;;;;;;;;20.20;47.30;;;;;;8372206;28;19921;-48
2021/09/23 13:15:21;;;;;;;;;;;20.20;47.40;;;;;;8366912;28;19913;-49
2021/09/23 13:19:21;;;;;;;;;;;20.30;47.40;;;;;;8366570;28;19925;-49
2021/09/23 13:23:23;;;;;;;;;;;20.30;47.40;;;;;;8367346;28;19920;-49
2021/09/23 13:27:24;;;;;;;;;;;20.20;47.40;;;;;;8366571;28;19986;-49
2021/09/23 13:31:25;;;;;;;;;;;20.20;47.40;;;;;;8365883;28;19974;-49
2021/09/23 13:35:25;;;;;;;;;;;20.20;47.40;;;;;;8366080;28;20281;-49
2021/09/23 13:39:26;;;;;;;;;;;20.30;47.40;;;;;;8366475;28;19999;-49
2021/09/23 13:43:26;;;;;;;;;;;20.20;47.40;;;;;;8365986;28;19972;-51
2021/09/23 13:47:27;;;;;;;;;;;20.30;47.40;;;;;;8365495;28;20356;-51
2021/09/23 13:51:29;;;;;;;;;;;20.30;47.40;;;;;;8365419;28;19920;-52
2021/09/23 13:55:30;;;;;;;;;;;20.30;47.40;;;;;;8364776;28;20396;-51
2021/09/23 13:59:30;;;;;;;;;;;20.30;47.30;;;;;;8366385;28;19958;-48
2021/09/23 14:03:31;;;;;;;;;;;20.30;47.40;;;;;;8365459;28;19924;-49
2021/09/23 14:07:32;;;;;;;;;;;20.30;47.30;;;;;;8364973;28;19986;-49
2021/09/23 14:11:32;;;;;;;;;;;20.30;47.40;;;;;;8365396;28;19920;-51
2021/09/23 14:15:33;;;;;;;;;;;20.40;47.30;;;;;;8365523;28;20012;-49
2021/09/23 14:19:34;;;;;;;;;;;20.40;47.30;;;;;;8365078;28;19913;-51
2021/09/23 14:23:34;;;;;;;;;;;20.40;47.20;;;;;;8364949;28;19966;-50
2021/09/23 14:27:35;;;;;;;;;;;20.40;47.20;;;;;;8364721;28;20262;-49
2021/09/23 14:31:35;;;;;;;;;;;20.40;47.20;;;;;;8364042;28;20362;-49
2021/09/23 14:35:36;;;;;;;;;;;20.40;47.20;;;;;;8365229;28;19913;-50
2021/09/23 14:39:36;;;;;;;;;;;20.40;47.20;;;;;;8364507;28;20383;-48
2021/09/23 14:43:37;;;;;;;;;;;20.40;47.20;;;;;;8363669;28;20019;-51
2021/09/23 14:47:38;;;;;;;;;;;20.40;47.20;;;;;;8363819;28;19932;-51
2021/09/23 14:51:38;;;;;;;;;;;20.40;47.20;;;;;;8364891;28;20322;-50
2021/09/23 14:55:39;;;;;;;;;;;20.40;47.20;;;;;;8363311;28;19917;-50
2021/09/23 14:59:39;;;;;;;;;;;20.40;47.10;;;;;;8363527;28;19917;-49
2021/09/23 15:03:40;;;;;;;;;;;20.50;47.20;;;;;;8363808;28;19920;-52
2021/09/23 15:07:42;;;;;;;;;;;20.50;47.20;;;;;;8361803;28;20019;-51
2021/09/23 15:11:42;;;;;;;;;;;20.50;47.20;;;;;;8364626;28;19928;-52
2021/09/23 15:15:43;;;;;;;;;;;20.50;47.20;;;;;;8363649;28;20396;-49
2021/09/23 15:19:43;;;;;;;;;;;20.50;47.20;;;;;;8363023;28;19917;-50
2021/09/23 15:23:44;;;;;;;;;;;20.50;47.20;;;;;;8345721;28;19959;-49
2021/09/23 15:27:44;;;;;;;;;;;20.50;47.10;;;;;;8364025;28;20011;-49
2021/09/23 15:31:45;;;;;;;;;;;20.50;47.10;;;;;;8362795;28;19917;-50
2021/09/23 15:35:45;;;;;;;;;;;20.60;47.10;;;;;;8363213;28;19917;-49
2021/09/23 15:39:46;;;;;;;;;;;20.60;47.00;;;;;;8363094;28;19974;-50
2021/09/23 15:43:47;;;;;;;;;;;20.60;47.00;;;;;;8363639;28;19917;-49
2021/09/23 15:47:47;;;;;;;;;;;20.60;47.00;;;;;;8362815;28;19936;-49
2021/09/23 15:51:48;;;;;;;;;;;20.60;47.00;;;;;;8362980;28;19913;-49
2021/09/23 15:55:48;;;;;;;;;;;20.60;47.00;;;;;;8383566;28;19923;-50
2021/09/23 15:59:49;;;;;;;;;;;20.60;47.00;;;;;;8391325;28;19977;-50
2021/09/23 16:03:49;;;;;;;;;;;20.60;47.00;;;;;;8393150;28;20019;-50
2021/09/23 16:07:50;;;;;;;;;;;20.60;46.90;;;;;;8390862;28;20355;-53
2021/09/23 16:11:50;;;;;;;;;;;20.60;46.90;;;;;;8380217;28;19921;-52
2021/09/23 16:15:51;;;;;;;;;;;20.60;46.90;;;;;;8389350;28;20358;-52
2021/09/23 16:19:52;;;;;;;;;;;20.60;46.90;;;;;;8365364;28;20285;-51
2021/09/23 16:23:54;;;;;;;;;;;20.60;46.90;;;;;;8369001;28;19916;-49
2021/09/23 16:27:55;;;;;;;;;;;20.60;46.90;;;;;;8381125;28;19927;-50
2021/09/23 16:31:56;;;;;;;;;;;20.60;46.90;;;;;;8367873;28;19917;-52
2021/09/23 16:35:56;;;;;;;;;;;20.60;46.90;;;;;;8368158;28;19943;-49
2021/09/23 16:39:57;;;;;;;;;;;20.70;47.00;;;;;;8367658;28;19931;-52
2021/09/23 16:43:57;;;;;;;;;;;20.60;46.90;;;;;;8367468;28;19925;-49
2021/09/23 16:47:58;;;;;;;;;;;20.60;46.90;;;;;;8367908;28;19925;-51
2021/09/23 16:51:58;;;;;;;;;;;20.60;47.00;;;;;;8367782;28;19917;-49
2021/09/23 16:55:59;;;;;;;;;;;20.70;47.00;;;;;;8367888;28;19913;-52
2021/09/23 16:59:59;;;;;;;;;;;20.70;47.00;;;;;;8367616;28;19917;-52
2021/09/23 17:04:00;;;;;;;;;;;20.60;47.00;;;;;;8378878;28;19920;-51
2021/09/23 17:08:02;;;;;;;;;;;20.60;47.00;;;;;;8366019;28;19971;-52
2021/09/23 17:12:03;;;;;;;;;;;20.60;47.00;;;;;;8367656;28;19920;-52
2021/09/23 17:16:03;;;;;;;;;;;20.60;47.00;;;;;;8366471;28;19917;-50
2021/09/23 17:20:05;;;;;;;;;;;20.60;47.10;;;;;;8367305;28;19916;-52
2021/09/23 17:24:05;;;;;;;;;;;20.60;47.10;;;;;;8366627;28;20281;-50
2021/09/23 17:28:08;;;;;;;;;;;20.60;47.10;;;;;;8366236;28;20020;-50
2021/09/23 17:32:08;;;;;;;;;;;20.60;47.20;;;;;;8366788;28;20034;-53
2021/09/23 17:36:08;;;;;;;;;;;20.60;47.20;;;;;;8366641;28;20419;-50
2021/09/23 17:40:10;;;;;;;;;;;20.60;47.20;;;;;;8371560;28;20384;-51
2021/09/23 17:44:10;;;;;;;;;;;20.60;47.20;;;;;;8375952;28;20003;-50
2021/09/23 17:48:11;;;;;;;;;;;20.60;47.30;;;;;;8366554;28;19932;-52
2021/09/23 17:52:11;;;;;;;;;;;20.60;47.30;;;;;;8391863;28;19970;-51
2021/09/23 17:56:12;;;;;;;;;;;20.60;47.30;;;;;;8380250;28;19948;-53
2021/09/23 18:00:15;;;;;;;;;;;20.60;47.30;;;;;;8365650;28;19913;-52
2021/09/23 18:04:16;;;;;;;;;;;20.60;47.30;;;;;;8396222;28;19971;-49
2021/09/23 18:08:16;;;;;;;;;;;20.60;47.30;;;;;;8365577;28;20004;-51
2021/09/23 18:12:17;;;;;;;;;;;20.60;47.30;;;;;;8358575;28;19931;-50
2021/09/23 18:16:17;;;;;;;;;;;20.60;47.30;;;;;;8384758;28;19917;-51
2021/09/23 18:20:18;;;;;;;;;;;20.60;47.30;;;;;;8364638;28;19917;-53
2021/09/23 18:24:22;;;;;;;;;;;20.60;47.30;;;;;;8365474;28;19924;-51
2021/09/23 18:28:22;;;;;;;;;;;20.60;47.30;;;;;;8372656;28;19932;-49
2021/09/23 18:32:22;;;;;;;;;;;20.60;47.30;;;;;;8381052;28;19959;-49
2021/09/23 18:36:24;;;;;;;;;;;20.60;47.30;;;;;;8371957;28;19913;-53
2021/09/23 18:40:25;;;;;;;;;;;20.60;47.40;;;;;;8376480;28;19920;-50
2021/09/23 18:44:25;;;;;;;;;;;20.60;47.30;;;;;;8365923;28;20416;-53
2021/09/23 18:48:28;;;;;;;;;;;20.60;47.30;;;;;;8364027;28;20356;-52
2021/09/23 18:52:31;;;;;;;;;;;20.60;47.30;;;;;;8379044;28;19924;-50
2021/09/23 18:56:31;;;;;;;;;;;20.60;47.40;;;;;;8384243;28;19959;-53
2021/09/23 19:00:32;;;;;;;;;;;20.60;47.30;;;;;;8391904;28;19917;-50
2021/09/23 19:04:32;;;;;;;;;;;20.50;47.30;;;;;;8371612;28;20433;-50
2021/09/23 19:08:33;;;;;;;;;;;20.60;47.40;;;;;;8363074;28;20365;-48
2021/09/23 19:12:33;;;;;;;;;;;20.50;47.40;;;;;;8363373;28;20373;-49
2021/09/23 19:16:34;;;;;;;;;;;20.60;47.40;;;;;;8363759;28;20370;-50
2021/09/23 19:20:34;;;;;;;;;;;20.50;47.40;;;;;;8363301;28;19974;-51
2021/09/23 19:24:35;;;;;;;;;;;20.60;47.40;;;;;;8363806;28;20300;-50
2021/09/23 19:28:35;;;;;;;;;;;20.50;47.40;;;;;;8362451;28;20352;-49
2021/09/23 19:32:38;;;;;;;;;;;20.60;47.40;;;;;;8363614;28;19919;-53
2021/09/23 19:36:39;;;;;;;;;;;20.50;47.40;;;;;;8362805;28;19917;-49
2021/09/23 19:40:39;;;;;;;;;;;20.50;47.40;;;;;;8362290;28;19939;-53
2021/09/23 19:44:40;;;;;;;;;;;20.60;47.40;;;;;;8362827;28;20494;-50
2021/09/23 19:48:41;;;;;;;;;;;20.50;47.40;;;;;;8362775;28;19933;-49
2021/09/23 19:52:42;;;;;;;;;;;20.50;47.30;;;;;;8362868;28;19966;-52
2021/09/23 19:56:45;;;;;;;;;;;20.50;47.30;;;;;;8368671;28;19924;-50
2021/09/23 20:00:45;;;;;;;;;;;20.50;47.40;;;;;;8369354;28;19917;-52
2021/09/23 20:04:46;;;;;;;;;;;20.50;47.30;;;;;;8368824;28;19995;-49
2021/09/23 20:08:47;;;;;;;;;;;20.50;47.30;;;;;;8369987;28;20012;-51
2021/09/23 20:12:47;;;;;;;;;;;20.50;47.30;;;;;;8368965;28;20006;-51
2021/09/23 20:16:47;;;;;;;;;;;20.50;47.30;;;;;;8368388;28;19920;-52
2021/09/23 20:20:48;;;;;;;;;;;20.50;47.30;;;;;;8368632;28;19939;-50
2021/09/23 20:24:49;;;;;;;;;;;20.50;47.30;;;;;;8369137;28;20004;-52
2021/09/23 20:28:49;;;;;;;;;;;20.50;47.30;;;;;;8368303;28;20266;-52
2021/09/23 20:32:50;;;;;;;;;;;20.50;47.30;;;;;;8368333;28;20266;-49
2021/09/23 20:36:50;;;;;;;;;;;20.50;47.30;;;;;;8368283;28;19917;-50
2021/09/23 20:40:51;;;;;;;;;;;20.50;47.30;;;;;;8367933;28;19917;-56
2021/09/23 20:44:51;;;;;;;;;;;20.50;47.30;;;;;;8382040;28;19913;-52
2021/09/23 20:48:52;;;;;;;;;;;20.50;47.30;;;;;;8374948;28;19925;-49
2021/09/23 20:52:52;;;;;;;;;;;20.50;47.30;;;;;;8369004;28;19980;-48
2021/09/23 20:56:57;;;;;;;;;;;20.50;47.30;;;;;;8371199;28;19921;-49
2021/09/23 21:01:00;;;;;;;;;;;20.50;47.30;;;;;;8370812;28;20404;-49
2021/09/23 21:05:00;;;;;;;;;;;20.50;47.30;;;;;;8368294;28;19920;-48
2021/09/23 21:09:01;;;;;;;;;;;20.50;47.30;;;;;;8368751;28;19931;-52
2021/09/23 21:13:01;;;;;;;;;;;20.50;47.20;;;;;;8367870;28;19916;-50
2021/09/23 21:17:02;;;;;;;;;;;20.50;47.20;;;;;;8400476;28;20297;-50
2021/09/23 21:21:02;;;;;;;;;;;20.50;47.30;;;;;;8401044;28;19919;-50
2021/09/23 21:25:03;;;;;;;;;;;20.50;47.30;;;;;;8399488;28;19917;-50
2021/09/23 21:29:04;;;;;;;;;;;20.50;47.20;;;;;;8399564;28;20018;-49
2021/09/23 21:33:04;;;;;;;;;;;20.50;47.20;;;;;;8399754;28;20277;-52
2021/09/23 21:37:05;;;;;;;;;;;20.50;47.20;;;;;;8399924;28;19912;-52
2021/09/23 21:41:05;;;;;;;;;;;20.50;47.20;;;;;;8399275;28;19923;-49
2021/09/23 21:45:07;;;;;;;;;;;20.40;47.10;;;;;;8399435;28;19996;-49
2021/09/23 21:49:08;;;;;;;;;;;20.50;47.20;;;;;;8398603;28;19933;-51
2021/09/23 21:53:09;;;;;;;;;;;20.50;47.20;;;;;;8400022;28;20384;-50
2021/09/23 21:57:09;;;;;;;;;;;20.40;47.20;;;;;;8398844;28;19923;-50
2021/09/23 22:01:09;;;;;;;;;;;20.40;47.10;;;;;;8406362;28;19916;-50
2021/09/23 22:05:10;;;;;;;;;;;20.40;47.20;;;;;;8418162;28;20365;-50
2021/09/23 22:09:10;;;;;;;;;;;20.40;47.10;;;;;;8398432;28;19931;-49
2021/09/23 22:13:12;;;;;;;;;;;20.40;47.10;;;;;;8398623;28;19919;-50
2021/09/23 22:17:12;;;;;;;;;;;20.40;47.20;;;;;;8398032;28;19916;-50
2021/09/23 22:21:13;;;;;;;;;;;20.40;47.10;;;;;;8398031;28;20027;-50
2021/09/23 22:25:14;;;;;;;;;;;20.40;47.20;;;;;;8397573;28;19970;-51
2021/09/23 22:29:15;;;;;;;;;;;20.40;47.10;;;;;;8398397;28;20001;-53
2021/09/23 22:33:15;;;;;;;;;;;20.40;47.10;;;;;;8397769;28;19924;-50
2021/09/23 22:37:16;;;;;;;;;;;20.40;47.20;;;;;;8397231;28;20350;-52
2021/09/23 22:41:17;;;;;;;;;;;20.40;47.20;;;;;;8397281;28;19917;-50
2021/09/23 22:45:17;;;;;;;;;;;20.30;47.10;;;;;;8397684;28;19912;-49
2021/09/23 22:49:18;;;;;;;;;;;20.30;47.20;;;;;;8397505;28;19924;-49
2021/09/23 22:53:18;;;;;;;;;;;20.30;47.20;;;;;;8396968;28;19973;-53
2021/09/23 22:57:19;;;;;;;;;;;20.30;47.10;;;;;;8397040;28;19916;-51
2021/09/23 23:01:19;;;;;;;;;;;20.30;47.20;;;;;;8396484;28;19985;-49
2021/09/23 23:05:20;;;;;;;;;;;20.30;47.10;;;;;;8397864;28;19936;-49
2021/09/23 23:09:20;;;;;;;;;;;20.30;47.20;;;;;;8397280;28;19924;-49
2021/09/23 23:13:21;;;;;;;;;;;20.30;47.20;;;;;;8396192;28;19924;-50
2021/09/23 23:17:21;;;;;;;;;;;20.30;47.20;;;;;;8396631;28;19917;-50
2021/09/23 23:21:22;;;;;;;;;;;20.30;47.20;;;;;;8397501;28;19986;-49